< < Back
Terminal Aerodrome Forecast


Current Version              Previous Versions:   1  2  3  4  5  6  7  8  9  

Terminal Aerodrome Forecast

681
FTUS42 KFFC 011700
TAFCSG
TAF
KCSG 011720Z 0118/0218 21003KT P6SM BKN060
     FM020100 00000KT P6SM SKC
     FM021000 00000KT 6SM BR SCT012
      TEMPO 0210/0213 4SM BR OVC012
     FM021400 17004KT P6SM SCT035=

Latest METAR

886
SAUS70 KWBC 021154
MTRCSG
METAR KCSG 021151Z AUTO 09003KT 10SM CLR 17/17 A3007 RMK AO2 SLP180
T01720167 10200 20172 53016


USA.gov is the U.S. government's official web portal to all federal, state and local government web resources and services.